sensor_id;sensor_type;location;lat;lon;timestamp;temperature;humidity
13389;DHT22;6764;53.250;10.410;2023-09-19T00:00:42;18.10;99.90
13389;DHT22;6764;53.250;10.410;2023-09-19T00:03:09;18.10;99.90
13389;DHT22;6764;53.250;10.410;2023-09-19T00:05:37;18.10;99.90
13389;DHT22;6764;53.250;10.410;2023-09-19T00:08:04;18.10;99.90
13389;DHT22;6764;53.250;10.410;2023-09-19T00:10:30;18.00;99.90
13389;DHT22;6764;53.250;10.410;2023-09-19T00:13:00;18.00;99.90
13389;DHT22;6764;53.250;10.410;2023-09-19T00:15:37;17.90;99.90
13389;DHT22;6764;53.250;10.410;2023-09-19T00:18:04;17.90;99.90
13389;DHT22;6764;53.250;10.410;2023-09-19T00:20:32;17.90;99.90
13389;DHT22;6764;53.250;10.410;2023-09-19T00:23:00;17.90;99.90
13389;DHT22;6764;53.250;10.410;2023-09-19T00:25:33;17.90;99.90
13389;DHT22;6764;53.250;10.410;2023-09-19T00:28:01;17.90;99.90
13389;DHT22;6764;53.250;10.410;2023-09-19T00:30:26;17.80;99.90
13389;DHT22;6764;53.250;10.410;2023-09-19T00:32:52;17.80;99.90
13389;DHT22;6764;53.250;10.410;2023-09-19T00:35:18;17.80;99.90
13389;DHT22;6764;53.250;10.410;2023-09-19T00:37:49;17.70;99.90
13389;DHT22;6764;53.250;10.410;2023-09-19T00:40:15;17.70;99.90
13389;DHT22;6764;53.250;10.410;2023-09-19T00:42:42;17.70;99.90
13389;DHT22;6764;53.250;10.410;2023-09-19T00:45:09;17.60;99.90
13389;DHT22;6764;53.250;10.410;2023-09-19T00:47:42;17.60;99.90
13389;DHT22;6764;53.250;10.410;2023-09-19T00:50:10;17.60;99.90
13389;DHT22;6764;53.250;10.410;2023-09-19T00:52:37;17.60;99.90
13389;DHT22;6764;53.250;10.410;2023-09-19T00:55:05;17.60;99.90
13389;DHT22;6764;53.250;10.410;2023-09-19T00:57:33;17.60;99.90
13389;DHT22;6764;53.250;10.410;2023-09-19T00:59:59;17.70;99.90
13389;DHT22;6764;53.250;10.410;2023-09-19T01:02:26;17.70;99.90
13389;DHT22;6764;53.250;10.410;2023-09-19T01:04:55;17.60;99.90
13389;DHT22;6764;53.250;10.410;2023-09-19T01:07:21;17.60;99.90
13389;DHT22;6764;53.250;10.410;2023-09-19T01:09:48;17.50;99.90
13389;DHT22;6764;53.250;10.410;2023-09-19T01:12:17;17.50;99.90
13389;DHT22;6764;53.250;10.410;2023-09-19T01:14:55;17.50;99.90
13389;DHT22;6764;53.250;10.410;2023-09-19T01:17:39;17.50;99.90
13389;DHT22;6764;53.250;10.410;2023-09-19T01:30:57;17.60;99.90
13389;DHT22;6764;53.250;10.410;2023-09-19T01:33:27;17.60;99.90
13389;DHT22;6764;53.250;10.410;2023-09-19T01:35:53;17.60;99.90
13389;DHT22;6764;53.250;10.410;2023-09-19T01:38:23;17.50;99.90
13389;DHT22;6764;53.250;10.410;2023-09-19T01:41:01;17.50;99.90
13389;DHT22;6764;53.250;10.410;2023-09-19T01:43:43;17.50;99.90
13389;DHT22;6764;53.250;10.410;2023-09-19T01:46:13;17.50;99.90
13389;DHT22;6764;53.250;10.410;2023-09-19T01:52:10;17.50;99.90
13389;DHT22;6764;53.250;10.410;2023-09-19T01:54:52;17.50;99.90
13389;DHT22;6764;53.250;10.410;2023-09-19T01:57:29;17.50;99.90
13389;DHT22;6764;53.250;10.410;2023-09-19T02:00:07;17.50;99.90
13389;DHT22;6764;53.250;10.410;2023-09-19T02:02:36;17.60;99.90
13389;DHT22;6764;53.250;10.410;2023-09-19T02:05:04;17.50;99.90
13389;DHT22;6764;53.250;10.410;2023-09-19T02:07:30;17.60;99.90
13389;DHT22;6764;53.250;10.410;2023-09-19T02:10:01;17.60;99.90
13389;DHT22;6764;53.250;10.410;2023-09-19T02:12:27;17.60;99.90
13389;DHT22;6764;53.250;10.410;2023-09-19T02:14:53;17.50;99.90
13389;DHT22;6764;53.250;10.410;2023-09-19T02:17:18;17.50;99.90
13389;DHT22;6764;53.250;10.410;2023-09-19T02:19:44;17.50;99.90
13389;DHT22;6764;53.250;10.410;2023-09-19T02:22:10;17.50;99.90
13389;DHT22;6764;53.250;10.410;2023-09-19T02:24:38;17.50;99.90
13389;DHT22;6764;53.250;10.410;2023-09-19T02:27:04;17.40;99.90
13389;DHT22;6764;53.250;10.410;2023-09-19T02:29:31;17.40;99.90
13389;DHT22;6764;53.250;10.410;2023-09-19T02:31:56;17.30;99.90
13389;DHT22;6764;53.250;10.410;2023-09-19T02:34:22;17.30;99.90
13389;DHT22;6764;53.250;10.410;2023-09-19T02:36:48;17.20;99.90
13389;DHT22;6764;53.250;10.410;2023-09-19T02:39:14;17.20;99.90
13389;DHT22;6764;53.250;10.410;2023-09-19T02:41:40;17.20;99.90
13389;DHT22;6764;53.250;10.410;2023-09-19T02:44:07;17.20;99.90
13389;DHT22;6764;53.250;10.410;2023-09-19T02:46:34;17.20;99.90
13389;DHT22;6764;53.250;10.410;2023-09-19T02:49:01;17.20;99.90
13389;DHT22;6764;53.250;10.410;2023-09-19T02:51:28;17.30;99.90
13389;DHT22;6764;53.250;10.410;2023-09-19T02:53:54;17.30;99.90
13389;DHT22;6764;53.250;10.410;2023-09-19T02:56:20;17.30;99.90
13389;DHT22;6764;53.250;10.410;2023-09-19T02:58:46;17.30;99.90
13389;DHT22;6764;53.250;10.410;2023-09-19T03:01:11;17.40;99.90
13389;DHT22;6764;53.250;10.410;2023-09-19T03:03:37;17.40;99.90
13389;DHT22;6764;53.250;10.410;2023-09-19T03:06:05;17.40;99.90
13389;DHT22;6764;53.250;10.410;2023-09-19T03:08:31;17.40;99.90
13389;DHT22;6764;53.250;10.410;2023-09-19T03:11:03;17.40;99.90
13389;DHT22;6764;53.250;10.410;2023-09-19T03:13:32;17.30;99.90
13389;DHT22;6764;53.250;10.410;2023-09-19T03:15:57;17.30;99.90
13389;DHT22;6764;53.250;10.410;2023-09-19T03:18:26;17.30;99.90
13389;DHT22;6764;53.250;10.410;2023-09-19T03:20:53;17.30;99.90
13389;DHT22;6764;53.250;10.410;2023-09-19T03:23:20;17.30;99.90
13389;DHT22;6764;53.250;10.410;2023-09-19T03:25:46;17.30;99.90
13389;DHT22;6764;53.250;10.410;2023-09-19T03:28:13;17.40;99.90
13389;DHT22;6764;53.250;10.410;2023-09-19T03:30:40;17.30;99.90
13389;DHT22;6764;53.250;10.410;2023-09-19T03:33:06;17.40;99.90
13389;DHT22;6764;53.250;10.410;2023-09-19T03:35:32;17.30;99.90
13389;DHT22;6764;53.250;10.410;2023-09-19T03:37:57;17.30;99.90
13389;DHT22;6764;53.250;10.410;2023-09-19T03:40:23;17.20;99.90
13389;DHT22;6764;53.250;10.410;2023-09-19T03:42:50;17.20;99.90
13389;DHT22;6764;53.250;10.410;2023-09-19T03:45:16;17.10;99.90
13389;DHT22;6764;53.250;10.410;2023-09-19T03:47:43;17.10;99.90
13389;DHT22;6764;53.250;10.410;2023-09-19T03:50:09;17.10;99.90
13389;DHT22;6764;53.250;10.410;2023-09-19T03:52:41;17.00;99.90
13389;DHT22;6764;53.250;10.410;2023-09-19T03:55:06;17.00;99.90
13389;DHT22;6764;53.250;10.410;2023-09-19T03:57:32;16.90;99.90
13389;DHT22;6764;53.250;10.410;2023-09-19T03:59:58;16.80;99.90
13389;DHT22;6764;53.250;10.410;2023-09-19T04:02:24;16.80;99.90
13389;DHT22;6764;53.250;10.410;2023-09-19T04:04:50;16.80;99.90
13389;DHT22;6764;53.250;10.410;2023-09-19T04:07:17;16.80;99.90
13389;DHT22;6764;53.250;10.410;2023-09-19T04:09:42;16.80;99.90
13389;DHT22;6764;53.250;10.410;2023-09-19T04:12:08;16.80;99.90
13389;DHT22;6764;53.250;10.410;2023-09-19T04:14:34;16.70;99.90
13389;DHT22;6764;53.250;10.410;2023-09-19T04:17:00;16.80;99.90
13389;DHT22;6764;53.250;10.410;2023-09-19T04:19:26;16.80;99.90
13389;DHT22;6764;53.250;10.410;2023-09-19T04:21:51;16.80;99.90
13389;DHT22;6764;53.250;10.410;2023-09-19T04:24:17;16.80;99.90
13389;DHT22;6764;53.250;10.410;2023-09-19T04:26:45;16.80;99.90
13389;DHT22;6764;53.250;10.410;2023-09-19T04:29:10;16.70;99.90
13389;DHT22;6764;53.250;10.410;2023-09-19T04:31:36;16.70;99.90
13389;DHT22;6764;53.250;10.410;2023-09-19T04:34:03;16.70;99.90
13389;DHT22;6764;53.250;10.410;2023-09-19T04:36:29;16.60;99.90
13389;DHT22;6764;53.250;10.410;2023-09-19T04:38:55;16.60;99.90
13389;DHT22;6764;53.250;10.410;2023-09-19T04:41:20;16.60;99.90
13389;DHT22;6764;53.250;10.410;2023-09-19T04:43:47;16.50;99.90
13389;DHT22;6764;53.250;10.410;2023-09-19T04:46:15;16.50;99.90
13389;DHT22;6764;53.250;10.410;2023-09-19T04:48:40;16.50;99.90
13389;DHT22;6764;53.250;10.410;2023-09-19T04:51:06;16.50;99.90
13389;DHT22;6764;53.250;10.410;2023-09-19T04:53:32;16.50;99.90
13389;DHT22;6764;53.250;10.410;2023-09-19T04:55:58;16.40;99.90
13389;DHT22;6764;53.250;10.410;2023-09-19T04:58:23;16.40;99.90
13389;DHT22;6764;53.250;10.410;2023-09-19T05:00:49;16.40;99.90
13389;DHT22;6764;53.250;10.410;2023-09-19T05:03:16;16.30;99.90
13389;DHT22;6764;53.250;10.410;2023-09-19T05:05:42;16.30;99.90
13389;DHT22;6764;53.250;10.410;2023-09-19T05:08:08;16.30;99.90
13389;DHT22;6764;53.250;10.410;2023-09-19T05:10:35;16.30;99.90
13389;DHT22;6764;53.250;10.410;2023-09-19T05:13:04;16.30;99.90
13389;DHT22;6764;53.250;10.410;2023-09-19T05:15:30;16.30;99.90
13389;DHT22;6764;53.250;10.410;2023-09-19T05:17:56;16.20;99.90
13389;DHT22;6764;53.250;10.410;2023-09-19T05:20:22;16.20;99.90
13389;DHT22;6764;53.250;10.410;2023-09-19T05:23:01;16.30;99.90
13389;DHT22;6764;53.250;10.410;2023-09-19T05:25:28;16.20;99.90
13389;DHT22;6764;53.250;10.410;2023-09-19T05:27:56;16.20;99.90
13389;DHT22;6764;53.250;10.410;2023-09-19T05:30:23;16.20;99.90
13389;DHT22;6764;53.250;10.410;2023-09-19T05:32:49;16.20;99.90
13389;DHT22;6764;53.250;10.410;2023-09-19T05:35:14;16.10;99.90
13389;DHT22;6764;53.250;10.410;2023-09-19T05:37:40;16.10;99.90
13389;DHT22;6764;53.250;10.410;2023-09-19T05:40:06;16.10;99.90
13389;DHT22;6764;53.250;10.410;2023-09-19T05:42:38;16.10;99.90
13389;DHT22;6764;53.250;10.410;2023-09-19T05:45:05;16.10;99.90
13389;DHT22;6764;53.250;10.410;2023-09-19T05:47:32;16.10;99.90
13389;DHT22;6764;53.250;10.410;2023-09-19T05:49:57;16.10;99.90
13389;DHT22;6764;53.250;10.410;2023-09-19T05:52:24;16.10;99.90
13389;DHT22;6764;53.250;10.410;2023-09-19T05:54:50;16.10;99.90
13389;DHT22;6764;53.250;10.410;2023-09-19T05:57:16;16.10;99.90
13389;DHT22;6764;53.250;10.410;2023-09-19T05:59:42;16.20;99.90
13389;DHT22;6764;53.250;10.410;2023-09-19T06:02:08;16.20;99.90
13389;DHT22;6764;53.250;10.410;2023-09-19T06:04:35;16.20;99.90
13389;DHT22;6764;53.250;10.410;2023-09-19T06:07:01;16.20;99.90
13389;DHT22;6764;53.250;10.410;2023-09-19T06:09:28;16.20;99.90
13389;DHT22;6764;53.250;10.410;2023-09-19T06:11:54;16.20;99.90
13389;DHT22;6764;53.250;10.410;2023-09-19T06:14:21;16.20;99.90
13389;DHT22;6764;53.250;10.410;2023-09-19T06:16:47;16.20;99.90
13389;DHT22;6764;53.250;10.410;2023-09-19T06:19:15;16.30;99.90
13389;DHT22;6764;53.250;10.410;2023-09-19T06:21:40;16.30;99.90
13389;DHT22;6764;53.250;10.410;2023-09-19T06:24:06;16.30;99.90
13389;DHT22;6764;53.250;10.410;2023-09-19T06:26:32;16.30;99.90
13389;DHT22;6764;53.250;10.410;2023-09-19T06:28:58;16.40;99.90
13389;DHT22;6764;53.250;10.410;2023-09-19T06:31:25;16.40;99.90
13389;DHT22;6764;53.250;10.410;2023-09-19T06:33:52;16.40;99.90
13389;DHT22;6764;53.250;10.410;2023-09-19T06:36:17;16.40;99.90
13389;DHT22;6764;53.250;10.410;2023-09-19T06:38:44;16.60;99.90
13389;DHT22;6764;53.250;10.410;2023-09-19T06:41:10;16.60;99.90
13389;DHT22;6764;53.250;10.410;2023-09-19T06:43:36;16.70;99.90
13389;DHT22;6764;53.250;10.410;2023-09-19T06:46:02;16.70;99.90
13389;DHT22;6764;53.250;10.410;2023-09-19T06:48:28;16.80;99.90
13389;DHT22;6764;53.250;10.410;2023-09-19T06:50:59;16.90;99.90
13389;DHT22;6764;53.250;10.410;2023-09-19T06:53:31;17.00;99.90
13389;DHT22;6764;53.250;10.410;2023-09-19T06:55:58;17.10;99.90
13389;DHT22;6764;53.250;10.410;2023-09-19T06:58:23;17.10;99.90
13389;DHT22;6764;53.250;10.410;2023-09-19T07:00:49;17.10;99.90
13389;DHT22;6764;53.250;10.410;2023-09-19T07:03:15;17.20;99.90
13389;DHT22;6764;53.250;10.410;2023-09-19T07:05:48;17.20;99.90
13389;DHT22;6764;53.250;10.410;2023-09-19T07:08:14;17.40;99.90
13389;DHT22;6764;53.250;10.410;2023-09-19T07:10:41;17.60;99.90
13389;DHT22;6764;53.250;10.410;2023-09-19T07:13:09;17.80;99.90
13389;DHT22;6764;53.250;10.410;2023-09-19T07:15:36;17.90;99.90
13389;DHT22;6764;53.250;10.410;2023-09-19T07:18:05;18.00;99.90
13389;DHT22;6764;53.250;10.410;2023-09-19T07:20:31;18.20;99.90
13389;DHT22;6764;53.250;10.410;2023-09-19T07:22:58;18.30;99.90
13389;DHT22;6764;53.250;10.410;2023-09-19T07:25:30;18.10;99.90
13389;DHT22;6764;53.250;10.410;2023-09-19T07:27:59;18.10;99.90
13389;DHT22;6764;53.250;10.410;2023-09-19T07:30:26;18.10;99.90
13389;DHT22;6764;53.250;10.410;2023-09-19T07:32:52;18.10;99.90
13389;DHT22;6764;53.250;10.410;2023-09-19T07:35:18;18.00;99.90
13389;DHT22;6764;53.250;10.410;2023-09-19T07:37:48;18.10;99.90
13389;DHT22;6764;53.250;10.410;2023-09-19T07:40:15;18.00;99.90
13389;DHT22;6764;53.250;10.410;2023-09-19T07:42:41;17.90;99.90
13389;DHT22;6764;53.250;10.410;2023-09-19T07:45:07;18.00;99.90
13389;DHT22;6764;53.250;10.410;2023-09-19T07:47:33;18.10;99.90
13389;DHT22;6764;53.250;10.410;2023-09-19T07:50:00;18.40;99.90
13389;DHT22;6764;53.250;10.410;2023-09-19T07:52:29;18.50;99.90
13389;DHT22;6764;53.250;10.410;2023-09-19T07:54:54;18.60;99.90
13389;DHT22;6764;53.250;10.410;2023-09-19T07:57:22;18.80;99.90
13389;DHT22;6764;53.250;10.410;2023-09-19T07:59:48;19.00;99.90
13389;DHT22;6764;53.250;10.410;2023-09-19T08:02:13;19.20;99.90
13389;DHT22;6764;53.250;10.410;2023-09-19T08:04:44;19.20;99.90
13389;DHT22;6764;53.250;10.410;2023-09-19T08:07:12;19.00;99.90
13389;DHT22;6764;53.250;10.410;2023-09-19T08:09:38;18.70;99.90
13389;DHT22;6764;53.250;10.410;2023-09-19T08:12:05;18.60;99.90
13389;DHT22;6764;53.250;10.410;2023-09-19T08:14:33;18.50;99.90
13389;DHT22;6764;53.250;10.410;2023-09-19T08:16:59;18.60;99.90
13389;DHT22;6764;53.250;10.410;2023-09-19T08:19:26;19.20;99.90
13389;DHT22;6764;53.250;10.410;2023-09-19T08:21:57;20.10;99.90
13389;DHT22;6764;53.250;10.410;2023-09-19T08:24:27;21.00;99.90
13389;DHT22;6764;53.250;10.410;2023-09-19T08:26:54;21.50;99.90
13389;DHT22;6764;53.250;10.410;2023-09-19T08:29:24;21.40;99.90
13389;DHT22;6764;53.250;10.410;2023-09-19T08:31:54;21.30;99.90
13389;DHT22;6764;53.250;10.410;2023-09-19T08:34:21;21.20;99.90
13389;DHT22;6764;53.250;10.410;2023-09-19T08:36:47;21.10;99.90
13389;DHT22;6764;53.250;10.410;2023-09-19T08:39:14;21.50;99.90
13389;DHT22;6764;53.250;10.410;2023-09-19T08:41:40;21.30;99.90
13389;DHT22;6764;53.250;10.410;2023-09-19T08:44:05;21.30;99.90
13389;DHT22;6764;53.250;10.410;2023-09-19T08:46:34;21.30;99.90
13389;DHT22;6764;53.250;10.410;2023-09-19T08:49:05;21.10;99.90
13389;DHT22;6764;53.250;10.410;2023-09-19T08:51:45;20.90;99.90
13389;DHT22;6764;53.250;10.410;2023-09-19T08:54:40;20.80;99.90
13389;DHT22;6764;53.250;10.410;2023-09-19T08:57:07;20.50;99.90
13389;DHT22;6764;53.250;10.410;2023-09-19T08:59:37;20.00;99.90
13389;DHT22;6764;53.250;10.410;2023-09-19T09:02:10;19.90;99.90
13389;DHT22;6764;53.250;10.410;2023-09-19T09:04:40;20.30;99.90
13389;DHT22;6764;53.250;10.410;2023-09-19T09:07:10;20.80;99.90
13389;DHT22;6764;53.250;10.410;2023-09-19T09:09:36;21.30;99.90
13389;DHT22;6764;53.250;10.410;2023-09-19T09:12:02;21.70;99.90
13389;DHT22;6764;53.250;10.410;2023-09-19T09:14:29;22.10;99.90
13389;DHT22;6764;53.250;10.410;2023-09-19T09:16:55;23.10;99.90
13389;DHT22;6764;53.250;10.410;2023-09-19T09:19:24;23.50;99.90
13389;DHT22;6764;53.250;10.410;2023-09-19T09:21:51;23.30;99.90
13389;DHT22;6764;53.250;10.410;2023-09-19T09:24:55;23.40;99.90
13389;DHT22;6764;53.250;10.410;2023-09-19T09:27:24;22.80;99.90
13389;DHT22;6764;53.250;10.410;2023-09-19T09:29:51;22.60;99.90
13389;DHT22;6764;53.250;10.410;2023-09-19T09:32:31;22.50;99.90
13389;DHT22;6764;53.250;10.410;2023-09-19T09:35:06;22.40;99.90
13389;DHT22;6764;53.250;10.410;2023-09-19T09:37:34;22.40;99.90
13389;DHT22;6764;53.250;10.410;2023-09-19T09:40:04;22.40;99.90
13389;DHT22;6764;53.250;10.410;2023-09-19T09:42:42;22.40;99.90
13389;DHT22;6764;53.250;10.410;2023-09-19T09:45:18;22.40;99.90
13389;DHT22;6764;53.250;10.410;2023-09-19T09:48:03;22.40;99.90
13389;DHT22;6764;53.250;10.410;2023-09-19T09:50:33;22.60;99.90
13389;DHT22;6764;53.250;10.410;2023-09-19T09:53:26;22.80;99.90
13389;DHT22;6764;53.250;10.410;2023-09-19T09:56:05;23.40;99.90
13389;DHT22;6764;53.250;10.410;2023-09-19T09:58:49;23.50;99.90
13389;DHT22;6764;53.250;10.410;2023-09-19T10:01:15;23.40;99.40
13389;DHT22;6764;53.250;10.410;2023-09-19T10:03:42;23.30;99.00
13389;DHT22;6764;53.250;10.410;2023-09-19T10:06:17;23.30;99.30
13389;DHT22;6764;53.250;10.410;2023-09-19T10:09:03;23.30;99.20
13389;DHT22;6764;53.250;10.410;2023-09-19T10:11:47;23.30;99.10
13389;DHT22;6764;53.250;10.410;2023-09-19T10:14:20;23.40;99.00
13389;DHT22;6764;53.250;10.410;2023-09-19T10:16:49;23.40;99.40
13389;DHT22;6764;53.250;10.410;2023-09-19T10:19:23;23.80;98.60
13389;DHT22;6764;53.250;10.410;2023-09-19T10:21:50;23.90;99.10
13389;DHT22;6764;53.250;10.410;2023-09-19T10:24:18;23.60;98.20
13389;DHT22;6764;53.250;10.410;2023-09-19T10:26:45;23.50;98.40
13389;DHT22;6764;53.250;10.410;2023-09-19T10:29:13;23.70;98.00
13389;DHT22;6764;53.250;10.410;2023-09-19T10:31:42;23.50;97.90
13389;DHT22;6764;53.250;10.410;2023-09-19T10:34:14;23.50;98.00
13389;DHT22;6764;53.250;10.410;2023-09-19T10:36:44;23.60;97.90
13389;DHT22;6764;53.250;10.410;2023-09-19T10:39:11;23.60;97.50
13389;DHT22;6764;53.250;10.410;2023-09-19T10:41:39;23.40;97.90
13389;DHT22;6764;53.250;10.410;2023-09-19T10:44:05;23.50;97.90
13389;DHT22;6764;53.250;10.410;2023-09-19T10:46:34;23.00;98.10
13389;DHT22;6764;53.250;10.410;2023-09-19T10:49:00;22.50;98.40
13389;DHT22;6764;53.250;10.410;2023-09-19T10:51:30;22.10;99.20
13389;DHT22;6764;53.250;10.410;2023-09-19T10:54:16;22.10;99.60
13389;DHT22;6764;53.250;10.410;2023-09-19T10:56:46;22.20;99.60
13389;DHT22;6764;53.250;10.410;2023-09-19T10:59:18;22.20;99.30
13389;DHT22;6764;53.250;10.410;2023-09-19T11:01:46;22.30;99.40
13389;DHT22;6764;53.250;10.410;2023-09-19T11:07:11;23.20;98.50
13389;DHT22;6764;53.250;10.410;2023-09-19T11:09:51;23.10;97.80
13389;DHT22;6764;53.250;10.410;2023-09-19T11:15:07;22.50;98.70
13389;DHT22;6764;53.250;10.410;2023-09-19T11:17:43;21.90;98.30
13389;DHT22;6764;53.250;10.410;2023-09-19T11:30:44;21.70;99.60
13389;DHT22;6764;53.250;10.410;2023-09-19T11:33:31;22.00;99.30
13389;DHT22;6764;53.250;10.410;2023-09-19T11:36:09;22.20;99.00
13389;DHT22;6764;53.250;10.410;2023-09-19T11:43:51;21.30;99.90
13389;DHT22;6764;53.250;10.410;2023-09-19T11:46:18;21.30;99.90
13389;DHT22;6764;53.250;10.410;2023-09-19T11:48:51;21.20;99.90
13389;DHT22;6764;53.250;10.410;2023-09-19T11:51:21;21.40;99.90
13389;DHT22;6764;53.250;10.410;2023-09-19T11:53:52;21.30;99.90
13389;DHT22;6764;53.250;10.410;2023-09-19T11:56:20;21.30;99.90
13389;DHT22;6764;53.250;10.410;2023-09-19T11:58:49;21.20;99.90
13389;DHT22;6764;53.250;10.410;2023-09-19T12:01:25;21.40;99.90
13389;DHT22;6764;53.250;10.410;2023-09-19T12:03:55;21.70;99.90
13389;DHT22;6764;53.250;10.410;2023-09-19T12:06:29;22.00;99.90
13389;DHT22;6764;53.250;10.410;2023-09-19T12:09:04;22.00;99.90
13389;DHT22;6764;53.250;10.410;2023-09-19T12:11:41;22.00;99.90
13389;DHT22;6764;53.250;10.410;2023-09-19T12:14:09;22.10;99.90
13389;DHT22;6764;53.250;10.410;2023-09-19T12:16:35;22.00;99.50
13389;DHT22;6764;53.250;10.410;2023-09-19T12:19:22;21.80;99.90
13389;DHT22;6764;53.250;10.410;2023-09-19T12:24:23;21.50;99.90
13389;DHT22;6764;53.250;10.410;2023-09-19T12:26:52;21.50;99.90
13389;DHT22;6764;53.250;10.410;2023-09-19T12:29:21;21.50;99.90
13389;DHT22;6764;53.250;10.410;2023-09-19T12:31:58;21.60;99.90
13389;DHT22;6764;53.250;10.410;2023-09-19T12:34:25;21.70;99.90
13389;DHT22;6764;53.250;10.410;2023-09-19T12:37:23;21.80;99.80
13389;DHT22;6764;53.250;10.410;2023-09-19T12:40:05;21.60;99.90
13389;DHT22;6764;53.250;10.410;2023-09-19T12:42:41;21.40;99.90
13389;DHT22;6764;53.250;10.410;2023-09-19T12:45:08;21.40;99.90
13389;DHT22;6764;53.250;10.410;2023-09-19T12:47:36;21.40;99.90
13389;DHT22;6764;53.250;10.410;2023-09-19T12:52:36;21.50;99.90
13389;DHT22;6764;53.250;10.410;2023-09-19T12:55:02;21.50;99.90
13389;DHT22;6764;53.250;10.410;2023-09-19T12:57:28;21.30;99.90
13389;DHT22;6764;53.250;10.410;2023-09-19T12:59:57;21.20;99.90
13389;DHT22;6764;53.250;10.410;2023-09-19T13:02:23;21.30;99.90
13389;DHT22;6764;53.250;10.410;2023-09-19T13:04:54;21.40;99.90
13389;DHT22;6764;53.250;10.410;2023-09-19T13:07:44;21.30;99.90
13389;DHT22;6764;53.250;10.410;2023-09-19T13:10:11;21.30;99.90
13389;DHT22;6764;53.250;10.410;2023-09-19T13:12:38;21.30;99.90
13389;DHT22;6764;53.250;10.410;2023-09-19T13:15:08;21.40;99.90
13389;DHT22;6764;53.250;10.410;2023-09-19T13:17:48;21.40;99.90
13389;DHT22;6764;53.250;10.410;2023-09-19T13:20:26;21.40;99.90
13389;DHT22;6764;53.250;10.410;2023-09-19T13:22:57;21.40;99.90
13389;DHT22;6764;53.250;10.410;2023-09-19T13:25:34;21.30;99.90
13389;DHT22;6764;53.250;10.410;2023-09-19T13:28:00;21.20;99.90
13389;DHT22;6764;53.250;10.410;2023-09-19T13:30:30;21.10;99.90
13389;DHT22;6764;53.250;10.410;2023-09-19T13:35:34;21.10;99.90
13389;DHT22;6764;53.250;10.410;2023-09-19T13:37:59;21.00;99.90
13389;DHT22;6764;53.250;10.410;2023-09-19T13:40:26;20.90;99.90
13389;DHT22;6764;53.250;10.410;2023-09-19T13:42:56;20.90;99.90
13389;DHT22;6764;53.250;10.410;2023-09-19T13:45:22;21.00;99.90
13389;DHT22;6764;53.250;10.410;2023-09-19T13:47:50;21.10;99.90
13389;DHT22;6764;53.250;10.410;2023-09-19T13:50:15;21.10;99.90
13389;DHT22;6764;53.250;10.410;2023-09-19T13:52:42;21.20;99.90
13389;DHT22;6764;53.250;10.410;2023-09-19T13:55:08;21.20;99.90
13389;DHT22;6764;53.250;10.410;2023-09-19T13:57:34;21.20;99.90
13389;DHT22;6764;53.250;10.410;2023-09-19T13:59:59;21.40;99.90
13389;DHT22;6764;53.250;10.410;2023-09-19T14:02:25;21.40;99.90
13389;DHT22;6764;53.250;10.410;2023-09-19T14:04:52;21.50;99.90
13389;DHT22;6764;53.250;10.410;2023-09-19T14:07:18;21.50;99.90
13389;DHT22;6764;53.250;10.410;2023-09-19T14:09:45;21.40;99.70
13389;DHT22;6764;53.250;10.410;2023-09-19T14:12:11;21.30;99.80
13389;DHT22;6764;53.250;10.410;2023-09-19T14:14:37;21.30;99.90
13389;DHT22;6764;53.250;10.410;2023-09-19T14:17:03;21.20;99.90
13389;DHT22;6764;53.250;10.410;2023-09-19T14:19:30;21.20;99.90
13389;DHT22;6764;53.250;10.410;2023-09-19T14:21:55;21.20;99.90
13389;DHT22;6764;53.250;10.410;2023-09-19T14:24:21;21.30;99.90
13389;DHT22;6764;53.250;10.410;2023-09-19T14:26:47;21.30;99.90
13389;DHT22;6764;53.250;10.410;2023-09-19T14:29:13;21.50;99.90
13389;DHT22;6764;53.250;10.410;2023-09-19T14:31:39;21.30;99.90
13389;DHT22;6764;53.250;10.410;2023-09-19T14:34:06;21.20;99.90
13389;DHT22;6764;53.250;10.410;2023-09-19T14:36:32;21.20;99.90
13389;DHT22;6764;53.250;10.410;2023-09-19T14:38:58;21.20;99.90
13389;DHT22;6764;53.250;10.410;2023-09-19T14:41:24;21.30;99.90
13389;DHT22;6764;53.250;10.410;2023-09-19T14:43:51;21.30;99.90
13389;DHT22;6764;53.250;10.410;2023-09-19T14:46:17;21.40;99.90
13389;DHT22;6764;53.250;10.410;2023-09-19T14:48:44;21.30;99.90
13389;DHT22;6764;53.250;10.410;2023-09-19T14:51:13;21.20;99.90
13389;DHT22;6764;53.250;10.410;2023-09-19T14:53:42;21.20;99.90
13389;DHT22;6764;53.250;10.410;2023-09-19T14:56:09;21.30;99.90
13389;DHT22;6764;53.250;10.410;2023-09-19T14:58:35;21.20;99.90
13389;DHT22;6764;53.250;10.410;2023-09-19T15:01:09;21.20;99.90
13389;DHT22;6764;53.250;10.410;2023-09-19T15:03:40;21.00;99.90
13389;DHT22;6764;53.250;10.410;2023-09-19T15:06:07;20.70;99.90
13389;DHT22;6764;53.250;10.410;2023-09-19T15:08:35;20.70;99.90
13389;DHT22;6764;53.250;10.410;2023-09-19T15:11:07;20.70;99.90
13389;DHT22;6764;53.250;10.410;2023-09-19T15:13:33;20.70;99.90
13389;DHT22;6764;53.250;10.410;2023-09-19T15:16:06;20.80;99.90
13389;DHT22;6764;53.250;10.410;2023-09-19T15:18:36;20.80;99.90
13389;DHT22;6764;53.250;10.410;2023-09-19T15:21:04;20.90;99.90
13389;DHT22;6764;53.250;10.410;2023-09-19T15:23:33;20.90;99.90
13389;DHT22;6764;53.250;10.410;2023-09-19T15:26:06;20.90;99.90
13389;DHT22;6764;53.250;10.410;2023-09-19T15:28:34;20.80;99.90
13389;DHT22;6764;53.250;10.410;2023-09-19T15:31:01;21.00;99.90
13389;DHT22;6764;53.250;10.410;2023-09-19T15:33:26;20.90;99.90
13389;DHT22;6764;53.250;10.410;2023-09-19T15:36:07;20.90;99.90
13389;DHT22;6764;53.250;10.410;2023-09-19T15:41:33;20.80;99.90
13389;DHT22;6764;53.250;10.410;2023-09-19T15:44:01;20.80;99.90
13389;DHT22;6764;53.250;10.410;2023-09-19T15:46:27;20.70;99.90
13389;DHT22;6764;53.250;10.410;2023-09-19T15:48:55;20.80;99.90
13389;DHT22;6764;53.250;10.410;2023-09-19T15:51:20;20.70;99.90
13389;DHT22;6764;53.250;10.410;2023-09-19T15:53:52;20.70;99.90
13389;DHT22;6764;53.250;10.410;2023-09-19T15:56:20;20.60;99.90
13389;DHT22;6764;53.250;10.410;2023-09-19T15:58:47;20.60;99.90
13389;DHT22;6764;53.250;10.410;2023-09-19T16:01:14;20.50;99.90
13389;DHT22;6764;53.250;10.410;2023-09-19T16:03:43;20.50;99.90
13389;DHT22;6764;53.250;10.410;2023-09-19T16:06:14;20.50;99.90
13389;DHT22;6764;53.250;10.410;2023-09-19T16:08:40;20.50;99.90
13389;DHT22;6764;53.250;10.410;2023-09-19T16:11:07;20.40;99.90
13389;DHT22;6764;53.250;10.410;2023-09-19T16:13:34;20.50;99.90
13389;DHT22;6764;53.250;10.410;2023-09-19T16:15:59;20.50;99.90
13389;DHT22;6764;53.250;10.410;2023-09-19T16:18:25;20.50;99.90
13389;DHT22;6764;53.250;10.410;2023-09-19T16:20:50;20.50;99.90
13389;DHT22;6764;53.250;10.410;2023-09-19T16:23:16;20.50;99.90
13389;DHT22;6764;53.250;10.410;2023-09-19T16:25:42;20.50;99.90